Time;durP1;ratioP1;P1;durP2;ratioP2;P2;SDS_P1;SDS_P2;PMS_P1;PMS_P2;Temp;Humidity;BMP_temperature;BMP_pressure;BME280_temperature;BME280_humidity;BME280_pressure;Samples;Min_cycle;Max_cycle;Signal;HPM_P1;HPM_P2
2024/01/23 00:01:15;;;;;;;;;;;5.40;99.90;;;;;;5022874;28;19957;-69
2024/01/23 00:03:42;;;;;;;;;;;5.40;99.90;;;;;;5023476;28;19921;-69
2024/01/23 00:06:09;;;;;;;;;;;5.40;99.90;;;;;;5024277;28;19960;-70
2024/01/23 00:08:35;;;;;;;;;;;5.40;99.90;;;;;;5025600;28;20149;-70
2024/01/23 00:11:02;;;;;;;;;;;5.40;99.90;;;;;;5026220;28;19928;-70
2024/01/23 00:13:29;;;;;;;;;;;5.40;99.90;;;;;;5026916;28;19988;-70
2024/01/23 00:15:55;;;;;;;;;;;5.50;99.90;;;;;;5025393;28;19992;-70
2024/01/23 00:18:23;;;;;;;;;;;5.50;99.90;;;;;;5026393;28;20270;-72
2024/01/23 00:20:50;;;;;;;;;;;5.50;99.90;;;;;;5026133;28;19980;-70
2024/01/23 00:23:17;;;;;;;;;;;5.50;99.90;;;;;;5026757;28;19921;-70
2024/01/23 00:25:43;;;;;;;;;;;5.60;99.90;;;;;;5025468;28;19987;-72
2024/01/23 00:28:10;;;;;;;;;;;5.50;99.90;;;;;;5025942;28;19921;-71
2024/01/23 00:30:38;;;;;;;;;;;5.60;99.90;;;;;;5028562;28;19921;-70
2024/01/23 00:33:05;;;;;;;;;;;5.60;99.90;;;;;;5042417;28;19943;-70
2024/01/23 00:35:33;;;;;;;;;;;5.70;99.90;;;;;;5041178;28;20179;-70
2024/01/23 00:38:00;;;;;;;;;;;5.70;99.90;;;;;;5042383;28;20199;-69
2024/01/23 00:40:26;;;;;;;;;;;5.70;99.90;;;;;;5038868;28;19992;-69
2024/01/23 00:42:53;;;;;;;;;;;5.70;99.90;;;;;;5023780;28;19949;-69
2024/01/23 00:45:19;;;;;;;;;;;5.70;99.90;;;;;;5023808;28;19992;-69
2024/01/23 00:47:46;;;;;;;;;;;5.80;99.90;;;;;;5042051;28;19921;-69
2024/01/23 00:50:13;;;;;;;;;;;5.80;99.90;;;;;;5034521;28;19927;-69
2024/01/23 00:52:41;;;;;;;;;;;5.80;99.90;;;;;;5025697;28;20107;-70
2024/01/23 00:55:07;;;;;;;;;;;5.80;99.90;;;;;;5024524;28;19952;-70
2024/01/23 00:57:34;;;;;;;;;;;5.80;99.90;;;;;;5040836;28;19922;-70
2024/01/23 01:00:05;;;;;;;;;;;5.90;99.90;;;;;;5041732;28;19921;-70
2024/01/23 01:02:31;;;;;;;;;;;5.90;99.90;;;;;;5029694;28;19928;-69
2024/01/23 01:04:58;;;;;;;;;;;5.80;99.90;;;;;;5024057;28;19956;-69
2024/01/23 01:07:25;;;;;;;;;;;5.90;99.90;;;;;;5025827;28;20191;-71
2024/01/23 01:09:53;;;;;;;;;;;5.90;99.90;;;;;;5024207;28;19921;-71
2024/01/23 01:12:19;;;;;;;;;;;5.80;99.90;;;;;;5029914;28;19956;-74
2024/01/23 01:14:46;;;;;;;;;;;5.80;99.90;;;;;;5040988;28;19927;-71
2024/01/23 01:17:12;;;;;;;;;;;5.80;99.90;;;;;;5041228;28;19991;-69
2024/01/23 01:19:39;;;;;;;;;;;5.80;99.90;;;;;;5034120;28;19989;-70
2024/01/23 01:22:06;;;;;;;;;;;5.80;99.90;;;;;;5041468;28;20000;-70
2024/01/23 01:24:33;;;;;;;;;;;5.80;99.90;;;;;;5040323;28;19922;-69
2024/01/23 01:27:01;;;;;;;;;;;5.90;99.90;;;;;;5041677;28;19928;-70
2024/01/23 01:29:27;;;;;;;;;;;5.90;99.90;;;;;;5040640;28;19921;-70
2024/01/23 01:31:54;;;;;;;;;;;5.90;99.90;;;;;;5041662;28;19952;-70
2024/01/23 01:34:21;;;;;;;;;;;5.90;99.90;;;;;;5040210;28;19928;-70
2024/01/23 01:36:47;;;;;;;;;;;5.90;99.90;;;;;;5041224;28;19928;-70
2024/01/23 01:39:14;;;;;;;;;;;5.90;99.90;;;;;;5041192;28;19988;-71
2024/01/23 01:41:41;;;;;;;;;;;5.90;99.90;;;;;;5039709;28;19925;-70
2024/01/23 01:44:09;;;;;;;;;;;5.90;99.90;;;;;;5041419;28;19929;-70
2024/01/23 01:46:35;;;;;;;;;;;5.90;99.90;;;;;;5039606;28;19997;-70
2024/01/23 01:49:02;;;;;;;;;;;5.80;99.90;;;;;;5041256;28;20096;-69
2024/01/23 01:51:30;;;;;;;;;;;5.80;99.90;;;;;;5040615;28;19953;-69
2024/01/23 01:53:57;;;;;;;;;;;5.70;99.90;;;;;;5044871;28;19944;-70
2024/01/23 01:56:24;;;;;;;;;;;5.60;99.90;;;;;;5029386;28;19957;-70
2024/01/23 01:58:51;;;;;;;;;;;5.60;99.90;;;;;;5028337;28;20257;-70
2024/01/23 02:01:19;;;;;;;;;;;5.60;99.90;;;;;;5029099;28;20215;-69
2024/01/23 02:03:46;;;;;;;;;;;5.60;99.90;;;;;;5028525;28;19948;-69
2024/01/23 02:06:13;;;;;;;;;;;5.60;99.90;;;;;;5028727;28;19997;-70
2024/01/23 02:08:40;;;;;;;;;;;5.60;99.90;;;;;;5033020;28;19956;-70
2024/01/23 02:11:07;;;;;;;;;;;5.60;99.90;;;;;;5026863;28;19921;-70
2024/01/23 02:13:33;;;;;;;;;;;5.60;99.90;;;;;;5026566;28;19980;-70
2024/01/23 02:16:00;;;;;;;;;;;5.60;99.90;;;;;;5032198;28;20285;-70
2024/01/23 02:18:28;;;;;;;;;;;5.60;99.90;;;;;;5043825;28;20043;-70
2024/01/23 02:20:54;;;;;;;;;;;5.60;99.90;;;;;;5044920;28;20165;-69
2024/01/23 02:23:21;;;;;;;;;;;5.70;99.90;;;;;;5043603;28;19956;-71
2024/01/23 02:25:49;;;;;;;;;;;5.70;99.90;;;;;;5044209;28;19957;-70
2024/01/23 02:28:16;;;;;;;;;;;5.70;99.90;;;;;;5043398;28;19971;-71
2024/01/23 02:30:42;;;;;;;;;;;5.80;99.90;;;;;;5044657;28;19980;-70
2024/01/23 02:33:09;;;;;;;;;;;5.70;99.90;;;;;;5044578;28;19921;-70
2024/01/23 02:35:36;;;;;;;;;;;5.70;99.90;;;;;;5040310;28;19989;-70
2024/01/23 02:38:03;;;;;;;;;;;5.80;99.90;;;;;;5033539;28;19921;-71
2024/01/23 02:40:29;;;;;;;;;;;5.70;99.90;;;;;;5043205;28;19929;-69
2024/01/23 02:42:57;;;;;;;;;;;5.70;99.90;;;;;;5044158;28;19921;-70
2024/01/23 02:45:24;;;;;;;;;;;5.70;99.90;;;;;;5036095;28;19953;-69
2024/01/23 02:47:51;;;;;;;;;;;5.60;99.90;;;;;;5027593;28;19975;-70
2024/01/23 02:50:17;;;;;;;;;;;5.60;99.90;;;;;;5034556;28;19928;-71
2024/01/23 02:52:44;;;;;;;;;;;5.50;99.90;;;;;;5038649;28;20282;-69
2024/01/23 02:55:11;;;;;;;;;;;5.50;99.90;;;;;;5043431;28;20225;-70
2024/01/23 02:57:38;;;;;;;;;;;5.50;99.90;;;;;;5040354;28;19925;-70
2024/01/23 03:00:08;;;;;;;;;;;5.50;99.90;;;;;;5027302;28;19921;-70
2024/01/23 03:02:34;;;;;;;;;;;5.40;99.90;;;;;;5031581;28;20119;-70
2024/01/23 03:05:01;;;;;;;;;;;5.40;99.90;;;;;;5024464;28;19981;-70
2024/01/23 03:07:27;;;;;;;;;;;5.40;99.90;;;;;;5026711;28;19997;-70
2024/01/23 03:09:54;;;;;;;;;;;5.30;99.90;;;;;;5025150;28;20175;-69
2024/01/23 03:12:21;;;;;;;;;;;5.20;99.90;;;;;;5028115;28;19997;-69
2024/01/23 03:14:48;;;;;;;;;;;5.20;99.90;;;;;;5026733;28;19961;-69
2024/01/23 03:17:16;;;;;;;;;;;5.20;99.90;;;;;;5027755;28;19956;-70
2024/01/23 03:19:43;;;;;;;;;;;5.20;99.90;;;;;;5043670;28;19963;-70
2024/01/23 03:22:10;;;;;;;;;;;5.20;99.90;;;;;;5043284;28;20163;-69
2024/01/23 03:24:37;;;;;;;;;;;5.20;99.90;;;;;;5042299;28;19996;-70
2024/01/23 03:27:04;;;;;;;;;;;5.20;99.90;;;;;;5043609;28;19921;-69
2024/01/23 03:29:40;;;;;;;;;;;5.20;99.90;;;;;;5027769;28;19921;-70
2024/01/23 03:32:07;;;;;;;;;;;5.20;99.90;;;;;;5026632;28;19922;-70
2024/01/23 03:34:35;;;;;;;;;;;5.10;99.90;;;;;;5026762;28;19957;-70
2024/01/23 03:37:02;;;;;;;;;;;5.20;99.90;;;;;;5026872;28;19922;-70
2024/01/23 03:39:29;;;;;;;;;;;5.20;99.90;;;;;;5027324;28;19922;-69
2024/01/23 03:41:55;;;;;;;;;;;5.10;99.90;;;;;;5026831;28;19922;-70
2024/01/23 03:44:23;;;;;;;;;;;5.10;99.90;;;;;;5027002;28;20321;-70
2024/01/23 03:46:50;;;;;;;;;;;5.10;99.90;;;;;;5026857;28;19921;-71
2024/01/23 03:49:16;;;;;;;;;;;5.10;99.90;;;;;;5027284;28;19988;-71
2024/01/23 03:51:44;;;;;;;;;;;5.10;99.90;;;;;;5026547;28;19989;-70
2024/01/23 03:54:11;;;;;;;;;;;5.10;99.90;;;;;;5026677;28;19953;-72
2024/01/23 03:56:38;;;;;;;;;;;5.10;99.90;;;;;;5026730;28;20186;-70
2024/01/23 03:59:04;;;;;;;;;;;5.10;99.90;;;;;;5025989;28;19922;-71
2024/01/23 04:01:31;;;;;;;;;;;5.10;99.90;;;;;;5026332;28;19921;-71
2024/01/23 04:03:58;;;;;;;;;;;5.10;99.90;;;;;;5026215;28;19964;-70
2024/01/23 04:06:25;;;;;;;;;;;5.10;99.90;;;;;;5025709;28;20170;-69
2024/01/23 04:08:53;;;;;;;;;;;5.10;99.90;;;;;;5025967;28;19929;-70
2024/01/23 04:11:19;;;;;;;;;;;5.10;99.90;;;;;;5027061;28;19964;-71
2024/01/23 04:13:46;;;;;;;;;;;5.20;99.90;;;;;;5026103;28;20000;-70
2024/01/23 04:16:12;;;;;;;;;;;5.10;99.90;;;;;;5032025;28;19928;-70
2024/01/23 04:18:39;;;;;;;;;;;5.20;99.90;;;;;;5042323;28;19929;-72
2024/01/23 04:21:06;;;;;;;;;;;5.10;99.90;;;;;;5042649;28;19921;-71
2024/01/23 04:23:32;;;;;;;;;;;5.20;99.90;;;;;;5041481;28;20238;-70
2024/01/23 04:26:00;;;;;;;;;;;5.20;99.90;;;;;;5041908;28;19928;-71
2024/01/23 04:28:27;;;;;;;;;;;5.20;99.90;;;;;;5041358;28;19996;-69
2024/01/23 04:30:54;;;;;;;;;;;5.20;99.90;;;;;;5042540;28;19984;-70
2024/01/23 04:33:20;;;;;;;;;;;5.10;99.90;;;;;;5041317;28;19980;-71
2024/01/23 04:35:47;;;;;;;;;;;5.10;99.90;;;;;;5030157;28;19922;-70
2024/01/23 04:38:14;;;;;;;;;;;5.20;99.90;;;;;;5026355;28;19928;-71
2024/01/23 04:40:40;;;;;;;;;;;5.10;99.90;;;;;;5018229;28;19921;-70
2024/01/23 04:43:08;;;;;;;;;;;5.00;99.90;;;;;;5032452;28;19984;-71
2024/01/23 04:45:35;;;;;;;;;;;4.90;99.90;;;;;;5036679;28;20187;-71
2024/01/23 04:48:02;;;;;;;;;;;4.80;99.90;;;;;;5034962;28;19992;-72
2024/01/23 04:50:28;;;;;;;;;;;4.60;99.90;;;;;;5037981;28;19928;-70
2024/01/23 04:52:56;;;;;;;;;;;4.50;99.90;;;;;;5031912;28;19928;-70
2024/01/23 04:55:23;;;;;;;;;;;4.40;99.90;;;;;;5036525;28;19976;-71
2024/01/23 04:57:49;;;;;;;;;;;4.30;99.90;;;;;;5027871;28;20183;-70
2024/01/23 05:00:18;;;;;;;;;;;4.30;99.90;;;;;;5032150;28;19964;-71
2024/01/23 05:02:45;;;;;;;;;;;4.20;99.90;;;;;;5026646;28;19921;-70
2024/01/23 05:05:11;;;;;;;;;;;4.10;99.90;;;;;;5033173;28;20177;-71
2024/01/23 05:07:37;;;;;;;;;;;4.10;99.90;;;;;;5040145;28;19952;-71
2024/01/23 05:10:04;;;;;;;;;;;4.10;99.90;;;;;;5028609;28;19929;-71
2024/01/23 05:12:31;;;;;;;;;;;4.00;99.90;;;;;;5025272;28;20187;-71
2024/01/23 05:14:57;;;;;;;;;;;4.10;99.90;;;;;;5024751;28;19985;-71
2024/01/23 05:17:25;;;;;;;;;;;4.10;99.90;;;;;;5026178;28;19980;-70
2024/01/23 05:19:52;;;;;;;;;;;4.10;99.90;;;;;;5025186;28;19957;-71
2024/01/23 05:22:19;;;;;;;;;;;4.10;99.90;;;;;;5032896;28;19921;-71
2024/01/23 05:24:45;;;;;;;;;;;4.10;99.90;;;;;;5012248;28;19996;-71
2024/01/23 05:27:12;;;;;;;;;;;4.10;99.90;;;;;;4993798;28;20203;-71
2024/01/23 05:29:38;;;;;;;;;;;4.10;99.90;;;;;;4999093;28;19985;-71
2024/01/23 05:32:05;;;;;;;;;;;4.10;99.90;;;;;;4998667;28;19972;-72
2024/01/23 05:34:34;;;;;;;;;;;4.00;99.90;;;;;;4994085;28;19983;-71
2024/01/23 05:37:01;;;;;;;;;;;4.00;99.90;;;;;;4998610;28;20302;-71
2024/01/23 05:39:29;;;;;;;;;;;3.90;99.90;;;;;;4998836;28;19989;-71
2024/01/23 05:41:55;;;;;;;;;;;3.80;99.90;;;;;;5002794;28;19928;-71
2024/01/23 05:44:22;;;;;;;;;;;3.60;99.90;;;;;;4997913;28;20303;-71
2024/01/23 05:46:49;;;;;;;;;;;3.60;99.90;;;;;;4996783;28;19940;-72
2024/01/23 05:49:16;;;;;;;;;;;3.50;99.90;;;;;;4999092;28;20106;-72
2024/01/23 05:51:44;;;;;;;;;;;3.50;99.90;;;;;;4997924;28;19926;-71
2024/01/23 05:54:10;;;;;;;;;;;3.50;99.90;;;;;;5005958;28;20000;-71
2024/01/23 05:56:37;;;;;;;;;;;3.60;99.90;;;;;;5029567;28;19992;-71
2024/01/23 05:59:03;;;;;;;;;;;3.60;99.90;;;;;;5032226;28;20171;-70
2024/01/23 06:01:32;;;;;;;;;;;3.70;99.90;;;;;;5031581;28;19997;-71
2024/01/23 06:03:59;;;;;;;;;;;3.80;99.90;;;;;;5021874;28;19948;-71
2024/01/23 06:06:25;;;;;;;;;;;3.90;99.90;;;;;;5041068;28;20185;-70
2024/01/23 06:08:53;;;;;;;;;;;3.90;99.90;;;;;;5027475;28;19921;-70
2024/01/23 06:11:20;;;;;;;;;;;3.90;99.90;;;;;;5022515;28;19988;-70
2024/01/23 06:13:46;;;;;;;;;;;4.00;99.90;;;;;;5043506;28;19952;-69
2024/01/23 06:16:13;;;;;;;;;;;4.00;99.90;;;;;;5029620;28;20266;-70
2024/01/23 06:18:40;;;;;;;;;;;4.10;99.90;;;;;;5041155;28;19936;-72
2024/01/23 06:21:06;;;;;;;;;;;4.10;99.90;;;;;;5038992;28;19921;-72
2024/01/23 06:23:33;;;;;;;;;;;4.10;99.90;;;;;;5039653;28;19928;-70
2024/01/23 06:26:01;;;;;;;;;;;4.10;99.90;;;;;;5036411;28;20237;-71
2024/01/23 06:28:28;;;;;;;;;;;4.10;99.90;;;;;;5031524;28;20005;-71
2024/01/23 06:30:54;;;;;;;;;;;4.20;99.90;;;;;;5029283;28;19996;-73
2024/01/23 06:33:21;;;;;;;;;;;4.20;99.90;;;;;;5035887;28;19928;-70
2024/01/23 06:35:47;;;;;;;;;;;4.20;99.90;;;;;;5043511;28;19988;-72
2024/01/23 06:38:14;;;;;;;;;;;4.20;99.90;;;;;;5020305;28;19944;-71
2024/01/23 06:40:41;;;;;;;;;;;4.30;99.90;;;;;;5027698;28;19996;-70
2024/01/23 06:43:09;;;;;;;;;;;4.30;99.90;;;;;;5033934;28;19992;-72
2024/01/23 06:45:35;;;;;;;;;;;4.30;99.90;;;;;;5027965;28;20170;-71
2024/01/23 06:48:02;;;;;;;;;;;4.30;99.90;;;;;;5039556;28;19948;-74
2024/01/23 06:50:29;;;;;;;;;;;4.30;99.90;;;;;;5043229;28;19949;-70
2024/01/23 06:52:56;;;;;;;;;;;4.30;99.90;;;;;;5044214;28;19927;-70
2024/01/23 06:55:23;;;;;;;;;;;4.30;99.90;;;;;;5042769;28;19988;-71
2024/01/23 06:57:50;;;;;;;;;;;4.40;99.90;;;;;;5043842;28;19992;-70
2024/01/23 07:00:18;;;;;;;;;;;4.40;99.90;;;;;;5036218;28;20407;-72
2024/01/23 07:02:45;;;;;;;;;;;4.50;99.90;;;;;;5027621;28;19997;-70
2024/01/23 07:05:11;;;;;;;;;;;4.50;99.90;;;;;;5027032;28;19953;-71
2024/01/23 07:07:38;;;;;;;;;;;4.50;99.90;;;;;;5027802;28;19988;-71
2024/01/23 07:10:05;;;;;;;;;;;4.60;99.90;;;;;;5026887;28;19928;-70
2024/01/23 07:12:31;;;;;;;;;;;4.60;99.90;;;;;;5028137;28;19921;-72
2024/01/23 07:14:58;;;;;;;;;;;4.60;99.90;;;;;;5026543;28;19921;-72
2024/01/23 07:17:26;;;;;;;;;;;4.60;99.90;;;;;;5027776;28;19921;-72
2024/01/23 07:19:53;;;;;;;;;;;4.70;99.90;;;;;;5027174;28;19922;-71
2024/01/23 07:22:19;;;;;;;;;;;4.70;99.90;;;;;;5034778;28;20235;-70
2024/01/23 07:24:46;;;;;;;;;;;4.70;99.90;;;;;;5043125;28;19991;-71
2024/01/23 07:27:12;;;;;;;;;;;4.70;99.90;;;;;;5043189;28;20135;-70
2024/01/23 07:29:40;;;;;;;;;;;4.70;99.90;;;;;;5043016;28;20171;-71
2024/01/23 07:32:07;;;;;;;;;;;4.70;99.90;;;;;;5043270;28;20215;-70
2024/01/23 07:34:35;;;;;;;;;;;4.70;99.90;;;;;;5041622;28;20117;-71
2024/01/23 07:37:02;;;;;;;;;;;4.70;99.90;;;;;;5043384;28;19921;-70
2024/01/23 07:39:29;;;;;;;;;;;4.70;99.90;;;;;;5042018;28;20211;-72
2024/01/23 07:41:56;;;;;;;;;;;4.70;99.90;;;;;;5036900;28;19944;-72
2024/01/23 07:44:23;;;;;;;;;;;4.70;99.90;;;;;;5032440;28;19985;-70
2024/01/23 07:46:49;;;;;;;;;;;4.70;99.90;;;;;;5043315;28;19977;-71
2024/01/23 07:49:16;;;;;;;;;;;4.70;99.90;;;;;;5028725;28;20235;-70
2024/01/23 07:51:48;;;;;;;;;;;4.80;99.90;;;;;;5036931;28;19985;-71
2024/01/23 07:54:15;;;;;;;;;;;4.80;99.90;;;;;;5041794;28;19984;-71
2024/01/23 07:56:42;;;;;;;;;;;4.80;99.90;;;;;;5019244;28;19953;-71
2024/01/23 07:59:08;;;;;;;;;;;4.80;99.90;;;;;;5026315;28;19921;-69
2024/01/23 08:01:36;;;;;;;;;;;4.80;99.90;;;;;;5042311;28;19980;-70
2024/01/23 08:04:02;;;;;;;;;;;4.80;99.90;;;;;;5042887;28;19921;-69
2024/01/23 08:06:29;;;;;;;;;;;4.80;99.90;;;;;;5032276;28;19954;-71
2024/01/23 08:08:57;;;;;;;;;;;4.90;99.90;;;;;;5026303;28;19943;-70
2024/01/23 08:11:24;;;;;;;;;;;4.80;99.90;;;;;;5027113;28;20201;-70
2024/01/23 08:13:50;;;;;;;;;;;4.80;99.90;;;;;;5026221;28;19921;-70
2024/01/23 08:16:17;;;;;;;;;;;4.80;99.90;;;;;;5026456;28;19921;-71
2024/01/23 08:18:44;;;;;;;;;;;4.80;99.90;;;;;;5025897;28;20114;-70
2024/01/23 08:21:10;;;;;;;;;;;4.80;99.90;;;;;;5032332;28;19928;-69
2024/01/23 08:23:37;;;;;;;;;;;4.90;99.90;;;;;;5041488;28;20174;-70
2024/01/23 08:26:05;;;;;;;;;;;4.90;99.90;;;;;;5041996;28;19921;-70
2024/01/23 08:28:31;;;;;;;;;;;4.90;99.90;;;;;;5033395;28;19956;-71
2024/01/23 08:31:03;;;;;;;;;;;4.90;99.90;;;;;;5025768;28;19996;-69
2024/01/23 08:33:30;;;;;;;;;;;4.90;99.90;;;;;;5026538;28;19922;-71
2024/01/23 08:35:56;;;;;;;;;;;5.00;99.90;;;;;;5025094;28;19957;-71
2024/01/23 08:38:23;;;;;;;;;;;5.00;99.90;;;;;;5026170;28;19964;-71
2024/01/23 08:40:49;;;;;;;;;;;5.10;99.90;;;;;;5025760;28;19985;-70
2024/01/23 08:43:18;;;;;;;;;;;5.10;99.90;;;;;;5026413;28;19921;-70
2024/01/23 08:45:44;;;;;;;;;;;5.10;99.90;;;;;;5025147;28;19957;-71
2024/01/23 08:48:11;;;;;;;;;;;5.00;99.90;;;;;;5025488;28;19957;-70
2024/01/23 08:50:37;;;;;;;;;;;5.00;99.90;;;;;;5025797;28;19921;-70
2024/01/23 08:53:04;;;;;;;;;;;5.00;99.90;;;;;;5025269;28;20278;-70
2024/01/23 08:55:31;;;;;;;;;;;5.00;99.90;;;;;;5024783;28;19953;-71
2024/01/23 08:57:58;;;;;;;;;;;5.00;99.90;;;;;;5025398;28;20115;-72
2024/01/23 09:00:26;;;;;;;;;;;5.00;99.90;;;;;;5025944;28;19921;-71
2024/01/23 09:02:53;;;;;;;;;;;5.00;99.90;;;;;;5024913;28;19921;-70
2024/01/23 09:05:19;;;;;;;;;;;5.00;99.90;;;;;;5025688;28;19926;-70
2024/01/23 09:07:46;;;;;;;;;;;5.00;99.90;;;;;;5025467;28;19984;-71
2024/01/23 09:10:13;;;;;;;;;;;5.00;99.90;;;;;;5025107;28;19921;-71
2024/01/23 09:12:39;;;;;;;;;;;5.00;99.90;;;;;;5025141;28;19953;-69
2024/01/23 09:15:07;;;;;;;;;;;4.90;99.90;;;;;;5024644;28;19944;-71
2024/01/23 09:17:35;;;;;;;;;;;5.00;99.90;;;;;;5025702;28;19921;-70
2024/01/23 09:20:02;;;;;;;;;;;5.00;99.90;;;;;;5024821;28;19922;-73
2024/01/23 09:22:29;;;;;;;;;;;5.00;99.90;;;;;;5025913;28;20159;-70
2024/01/23 09:24:55;;;;;;;;;;;5.10;99.90;;;;;;5029192;28;19976;-70
2024/01/23 09:27:22;;;;;;;;;;;5.10;99.90;;;;;;5040858;28;19984;-71
2024/01/23 09:29:49;;;;;;;;;;;5.20;99.90;;;;;;5037305;28;20242;-71
2024/01/23 09:32:15;;;;;;;;;;;5.20;99.90;;;;;;5025483;28;19921;-71
2024/01/23 09:34:43;;;;;;;;;;;5.20;99.90;;;;;;5040603;28;19921;-73
2024/01/23 09:37:10;;;;;;;;;;;5.20;99.90;;;;;;5041426;28;19927;-71
2024/01/23 09:39:37;;;;;;;;;;;5.20;99.90;;;;;;5040394;28;19929;-70
2024/01/23 09:42:04;;;;;;;;;;;5.20;99.90;;;;;;5041512;28;19984;-71
2024/01/23 09:44:31;;;;;;;;;;;5.20;99.90;;;;;;5040093;28;20194;-71
2024/01/23 09:46:58;;;;;;;;;;;5.20;99.90;;;;;;5041579;28;19943;-70
2024/01/23 09:49:26;;;;;;;;;;;5.30;99.90;;;;;;5039097;28;19988;-70
2024/01/23 09:51:55;;;;;;;;;;;5.30;99.90;;;;;;5024654;28;19922;-71
2024/01/23 09:54:23;;;;;;;;;;;5.30;99.90;;;;;;5024875;28;20258;-71
2024/01/23 09:56:50;;;;;;;;;;;5.30;99.90;;;;;;5024600;28;19960;-69
2024/01/23 09:59:17;;;;;;;;;;;5.40;99.90;;;;;;5025143;28;20283;-70
2024/01/23 10:01:44;;;;;;;;;;;5.40;99.90;;;;;;5024661;28;19984;-71
2024/01/23 10:04:11;;;;;;;;;;;5.40;99.90;;;;;;5024827;28;19926;-71
2024/01/23 10:06:39;;;;;;;;;;;5.50;99.90;;;;;;5004963;28;20264;-70
2024/01/23 10:09:07;;;;;;;;;;;5.50;99.90;;;;;;4993522;28;19960;-70
2024/01/23 10:11:34;;;;;;;;;;;5.50;99.90;;;;;;5012175;28;19981;-70
2024/01/23 10:14:01;;;;;;;;;;;5.60;99.90;;;;;;5026500;28;19922;-69
2024/01/23 10:16:28;;;;;;;;;;;5.50;99.90;;;;;;5043281;28;19943;-70
2024/01/23 10:18:55;;;;;;;;;;;5.60;99.90;;;;;;5043937;28;19961;-70
2024/01/23 10:21:21;;;;;;;;;;;5.60;99.90;;;;;;5043879;28;20230;-69
2024/01/23 10:23:49;;;;;;;;;;;5.60;99.90;;;;;;5044858;28;19975;-69
2024/01/23 10:26:17;;;;;;;;;;;5.70;99.90;;;;;;5043620;28;19956;-68
2024/01/23 10:28:44;;;;;;;;;;;5.70;99.90;;;;;;5021255;28;19957;-70
2024/01/23 10:31:11;;;;;;;;;;;5.70;99.90;;;;;;5027950;28;19921;-71
2024/01/23 10:33:37;;;;;;;;;;;5.90;99.90;;;;;;5028553;28;19980;-72
2024/01/23 10:36:07;;;;;;;;;;;5.90;99.90;;;;;;5027638;28;20155;-71
2024/01/23 10:38:35;;;;;;;;;;;6.00;99.90;;;;;;5036491;28;20262;-70
2024/01/23 10:41:02;;;;;;;;;;;6.00;99.90;;;;;;5044394;28;19921;-70
2024/01/23 10:43:31;;;;;;;;;;;6.10;99.90;;;;;;5043389;28;20238;-74
2024/01/23 10:45:58;;;;;;;;;;;6.10;99.90;;;;;;5031551;28;19925;-71
2024/01/23 10:48:26;;;;;;;;;;;6.20;99.90;;;;;;5035489;28;19980;-71
2024/01/23 10:50:54;;;;;;;;;;;6.20;99.90;;;;;;5044240;28;20096;-70
2024/01/23 10:53:22;;;;;;;;;;;6.20;99.90;;;;;;5043646;28;19921;-70
2024/01/23 10:55:49;;;;;;;;;;;6.30;99.90;;;;;;5039226;28;19925;-70
2024/01/23 10:58:18;;;;;;;;;;;6.40;99.90;;;;;;5041636;28;19956;-70
2024/01/23 11:00:47;;;;;;;;;;;6.50;99.90;;;;;;5043922;28;19924;-71
2024/01/23 11:03:14;;;;;;;;;;;6.60;99.90;;;;;;5030117;28;19972;-70
2024/01/23 11:05:44;;;;;;;;;;;6.70;99.90;;;;;;5029431;28;20262;-70
2024/01/23 11:08:13;;;;;;;;;;;6.70;99.90;;;;;;5043872;28;19964;-70
2024/01/23 11:10:44;;;;;;;;;;;6.70;99.90;;;;;;5043744;28;19920;-74
2024/01/23 11:13:16;;;;;;;;;;;6.70;99.90;;;;;;5036786;28;19984;-71
2024/01/23 11:15:42;;;;;;;;;;;6.70;99.90;;;;;;5027013;28;19928;-71
2024/01/23 11:18:27;;;;;;;;;;;6.60;99.90;;;;;;5041111;28;19988;-69
2024/01/23 11:21:12;;;;;;;;;;;6.50;99.90;;;;;;5043626;28;19992;-70
2024/01/23 11:23:40;;;;;;;;;;;6.50;99.90;;;;;;5043201;28;19921;-69
2024/01/23 11:26:12;;;;;;;;;;;6.40;99.90;;;;;;5041932;28;20207;-70
2024/01/23 11:28:38;;;;;;;;;;;6.30;99.90;;;;;;5042263;28;19929;-71
2024/01/23 11:31:08;;;;;;;;;;;6.40;99.90;;;;;;5043484;28;19927;-71
2024/01/23 11:33:36;;;;;;;;;;;6.40;99.90;;;;;;5034417;28;19948;-71
2024/01/23 11:36:10;;;;;;;;;;;6.40;99.90;;;;;;5026655;28;19929;-70
2024/01/23 11:38:43;;;;;;;;;;;6.40;99.90;;;;;;5042734;28;19928;-69
2024/01/23 11:41:13;;;;;;;;;;;6.50;99.90;;;;;;5043516;28;20157;-70
2024/01/23 11:43:41;;;;;;;;;;;6.50;99.90;;;;;;5043186;28;19921;-71
2024/01/23 11:46:11;;;;;;;;;;;6.50;99.90;;;;;;5029021;28;19953;-71
2024/01/23 11:48:40;;;;;;;;;;;6.50;99.90;;;;;;5042311;28;19929;-70
2024/01/23 11:51:08;;;;;;;;;;;6.50;99.90;;;;;;5028574;28;20904;-71
2024/01/23 11:53:35;;;;;;;;;;;6.70;99.90;;;;;;5027102;28;20226;-70
2024/01/23 11:56:02;;;;;;;;;;;6.70;99.90;;;;;;5025866;28;20207;-71
2024/01/23 11:58:29;;;;;;;;;;;6.60;99.90;;;;;;5027183;28;19929;-70
2024/01/23 12:00:57;;;;;;;;;;;6.60;99.90;;;;;;5026558;28;19921;-70
2024/01/23 12:03:24;;;;;;;;;;;6.50;99.90;;;;;;5034600;28;19953;-71
2024/01/23 12:05:53;;;;;;;;;;;6.50;99.90;;;;;;5031030;28;19992;-70
2024/01/23 12:08:19;;;;;;;;;;;6.50;99.90;;;;;;5039807;28;19921;-71
2024/01/23 12:10:46;;;;;;;;;;;6.40;99.90;;;;;;5023961;28;19926;-69
2024/01/23 12:13:13;;;;;;;;;;;6.50;99.90;;;;;;5026366;28;19957;-70
2024/01/23 12:15:39;;;;;;;;;;;6.60;99.90;;;;;;5025962;28;19956;-72
2024/01/23 12:18:06;;;;;;;;;;;6.70;99.90;;;;;;5026129;28;19988;-69
2024/01/23 12:20:33;;;;;;;;;;;6.80;99.90;;;;;;5028688;28;19921;-70
2024/01/23 12:23:01;;;;;;;;;;;6.80;99.90;;;;;;5028198;28;20183;-72
2024/01/23 12:25:27;;;;;;;;;;;6.80;99.90;;;;;;5028790;28;19921;-71
2024/01/23 12:27:54;;;;;;;;;;;6.70;99.90;;;;;;5042133;28;20211;-70
2024/01/23 12:30:20;;;;;;;;;;;6.60;99.90;;;;;;5040603;28;20000;-70
2024/01/23 12:32:48;;;;;;;;;;;6.50;99.90;;;;;;5042213;28;19984;-71
2024/01/23 12:35:14;;;;;;;;;;;6.40;99.90;;;;;;5040841;28;19927;-70
2024/01/23 12:37:41;;;;;;;;;;;6.40;99.90;;;;;;5025225;28;20111;-70
2024/01/23 12:40:11;;;;;;;;;;;6.30;99.90;;;;;;5032506;28;19929;-71
2024/01/23 12:42:40;;;;;;;;;;;6.30;99.90;;;;;;5041118;28;19936;-70
2024/01/23 12:45:08;;;;;;;;;;;6.30;99.90;;;;;;5034441;28;19929;-71
2024/01/23 12:47:36;;;;;;;;;;;6.30;99.90;;;;;;5032048;28;20181;-71
2024/01/23 12:50:02;;;;;;;;;;;6.40;99.90;;;;;;5024787;28;19928;-70
2024/01/23 12:52:29;;;;;;;;;;;6.50;99.90;;;;;;5026128;28;20001;-72
2024/01/23 12:54:57;;;;;;;;;;;6.60;99.90;;;;;;5023467;28;19928;-71
2024/01/23 12:57:24;;;;;;;;;;;6.60;99.90;;;;;;5039168;28;19952;-71
2024/01/23 12:59:51;;;;;;;;;;;6.70;99.90;;;;;;5035818;28;19921;-71
2024/01/23 13:02:18;;;;;;;;;;;6.70;99.90;;;;;;5041107;28;20119;-69
2024/01/23 13:04:44;;;;;;;;;;;6.70;99.90;;;;;;5041205;28;19921;-70
2024/01/23 13:07:11;;;;;;;;;;;6.80;99.90;;;;;;5034444;28;19980;-71
2024/01/23 13:09:38;;;;;;;;;;;6.90;99.90;;;;;;5034096;28;19981;-71
2024/01/23 13:12:05;;;;;;;;;;;7.10;99.90;;;;;;5035318;28;19953;-72
2024/01/23 13:14:36;;;;;;;;;;;7.40;99.90;;;;;;5025494;28;20056;-70
2024/01/23 13:17:03;;;;;;;;;;;7.60;99.90;;;;;;5025383;28;19972;-70
2024/01/23 13:19:29;;;;;;;;;;;7.70;99.90;;;;;;5025708;28;19984;-71
2024/01/23 13:21:56;;;;;;;;;;;7.60;99.90;;;;;;5037121;28;19928;-70
2024/01/23 13:24:22;;;;;;;;;;;7.60;99.90;;;;;;5032712;28;19985;-71
2024/01/23 13:26:49;;;;;;;;;;;7.50;99.90;;;;;;5024093;28;20271;-69
2024/01/23 13:29:16;;;;;;;;;;;7.40;99.90;;;;;;5025078;28;19921;-70
2024/01/23 13:31:45;;;;;;;;;;;7.30;99.90;;;;;;5018136;28;19925;-71
2024/01/23 13:34:12;;;;;;;;;;;7.20;99.90;;;;;;5024921;28;20211;-70
2024/01/23 13:36:39;;;;;;;;;;;7.30;99.90;;;;;;5025211;28;19984;-71
2024/01/23 13:39:13;;;;;;;;;;;7.50;99.90;;;;;;5024546;28;19953;-71
2024/01/23 13:41:40;;;;;;;;;;;7.60;99.90;;;;;;5041036;28;19952;-69
2024/01/23 13:44:07;;;;;;;;;;;7.70;99.90;;;;;;5041416;28;20000;-70
2024/01/23 13:46:34;;;;;;;;;;;7.70;99.90;;;;;;5040268;28;19922;-71
2024/01/23 13:49:03;;;;;;;;;;;7.80;99.90;;;;;;5043760;28;19957;-71
2024/01/23 13:51:30;;;;;;;;;;;7.70;99.90;;;;;;5044396;28;19928;-71
2024/01/23 13:53:56;;;;;;;;;;;7.70;99.90;;;;;;5045383;28;19921;-70
2024/01/23 13:56:23;;;;;;;;;;;7.50;99.90;;;;;;5043773;28;19957;-70
2024/01/23 13:58:51;;;;;;;;;;;7.30;99.90;;;;;;5045223;28;19921;-69
2024/01/23 14:01:17;;;;;;;;;;;7.10;99.90;;;;;;5044074;28;19921;-70
2024/01/23 14:03:44;;;;;;;;;;;7.00;99.90;;;;;;5045229;28;19963;-71
2024/01/23 14:06:12;;;;;;;;;;;6.90;99.90;;;;;;5044771;28;19927;-71
2024/01/23 14:08:41;;;;;;;;;;;6.90;99.90;;;;;;5044729;28;19995;-70
2024/01/23 14:11:09;;;;;;;;;;;6.80;99.90;;;;;;5045061;28;19928;-72
2024/01/23 14:13:36;;;;;;;;;;;6.80;99.90;;;;;;5043414;28;19922;-70
2024/01/23 14:16:02;;;;;;;;;;;6.70;99.90;;;;;;5044210;28;19921;-70
2024/01/23 14:18:30;;;;;;;;;;;6.70;99.90;;;;;;5044076;28;19959;-70
2024/01/23 14:20:56;;;;;;;;;;;6.70;99.90;;;;;;5044997;28;19921;-69
2024/01/23 14:23:24;;;;;;;;;;;6.70;99.90;;;;;;5044058;28;19964;-70
2024/01/23 14:25:51;;;;;;;;;;;6.80;99.90;;;;;;5032781;28;19988;-71
2024/01/23 14:28:18;;;;;;;;;;;6.70;99.90;;;;;;5028352;28;19992;-70
2024/01/23 14:30:49;;;;;;;;;;;6.70;99.90;;;;;;5041617;28;19956;-70